Tachie, Canada
Current Conditions -  °F | °C
As of 12:26 PM on Thursday 29 Jan 2015 (Local Time) from CYZY Reporting Station
Light Snow Light Snow  
Wind Chill: 22°   Ceiling: 800
Heat Index: 30°   Visibility: 3mi
Dew Point: 30°   Wind: 9mph
Humidity: 100%   Direction: 150°SSE
Pressure: 30.24"   Gusts: NA
Location:  54.65°N, 124.77°W
Report Text: CYZY 292026Z AUTO 15008KT 3SM -SN BKN008 OVC017 M01/M01 A3024 RMK SLP277
Loading
Personal Weather Stations






























Interactive Weather Map New forecast layout! Learn more

10-Day Weather Forecast

Advertisements
Track Severe Weather on mobile